createdAt,value
2023-01-12T00:00:49.041Z,57.15
2023-01-12T00:03:35.623Z,51.33
2023-01-12T00:06:15.647Z,59.38
2023-01-12T00:09:09.634Z,55.90
2023-01-12T00:11:56.640Z,46.97
2023-01-12T00:14:29.743Z,53.00
2023-01-12T00:17:18.618Z,64.15
2023-01-12T00:19:51.800Z,47.95
2023-01-12T00:22:38.630Z,54.85
2023-01-12T00:25:18.659Z,44.85
2023-01-12T00:28:12.638Z,40.55
2023-01-12T00:30:59.674Z,41.67
2023-01-12T00:33:32.739Z,44.03
2023-01-12T00:36:29.640Z,44.28
2023-01-12T00:39:16.663Z,36.22
2023-01-12T00:42:15.662Z,43.65
2023-01-12T00:45:20.683Z,48.00
2023-01-12T00:47:53.991Z,55.67
2023-01-12T00:50:40.654Z,47.08
2023-01-12T00:53:13.755Z,39.30
2023-01-12T00:56:00.661Z,69.82
2023-01-12T00:58:41.677Z,54.63
2023-01-12T01:01:28.775Z,43.03
2023-01-12T01:04:04.759Z,44.88
2023-01-12T01:06:51.660Z,47.97
2023-01-12T01:09:34.648Z,47.28
2023-01-12T01:12:28.670Z,39.88
2023-01-12T01:15:22.651Z,46.83
2023-01-12T01:18:16.660Z,44.10
2023-01-12T01:21:10.645Z,48.28
2023-01-12T01:23:57.664Z,46.25
2023-01-12T01:26:33.766Z,40.67
2023-01-12T01:29:20.664Z,41.22
2023-01-12T01:31:53.773Z,38.03
2023-01-12T01:34:40.673Z,43.78
2023-01-12T01:37:13.766Z,45.08
2023-01-12T01:40:01.675Z,48.95
2023-01-12T01:42:34.787Z,44.17
2023-01-12T01:45:23.667Z,43.30
2023-01-12T01:48:07.755Z,50.05
2023-01-12T01:51:03.684Z,37.72
2023-01-12T01:53:48.682Z,42.80
2023-01-12T01:56:43.681Z,49.30
2023-01-12T01:59:35.667Z,43.80
2023-01-12T02:02:11.844Z,45.45
2023-01-12T02:05:01.680Z,49.90
2023-01-12T02:07:46.667Z,45.78
2023-01-12T02:10:40.672Z,63.13
2023-01-12T02:13:46.695Z,76.15
2023-01-12T02:16:25.771Z,38.22
2023-01-12T02:19:41.716Z,58.65
2023-01-12T02:22:24.681Z,57.13
2023-01-12T02:25:34.715Z,43.75
2023-01-12T02:28:42.825Z,50.17
2023-01-12T02:31:48.694Z,41.55
2023-01-12T02:34:59.725Z,49.60
2023-01-12T02:38:21.715Z,39.95
2023-01-12T02:41:14.684Z,41.17
2023-01-12T02:44:08.794Z,48.22
2023-01-12T02:47:04.685Z,44.72
2023-01-12T02:49:57.701Z,42.83
2023-01-12T02:52:32.815Z,52.22
2023-01-12T02:55:21.704Z,47.53
2023-01-12T02:57:55.807Z,42.25
2023-01-12T03:00:45.745Z,42.05
2023-01-12T03:03:19.404Z,44.75
2023-01-12T03:06:08.693Z,39.88
2023-01-12T03:08:52.721Z,36.65
2023-01-12T03:11:49.753Z,33.42
2023-01-12T03:14:40.703Z,38.75
2023-01-12T03:17:20.136Z,60.40
2023-01-12T03:20:23.730Z,34.85
2023-01-12T03:23:08.701Z,50.83
2023-01-12T03:26:06.695Z,40.03
2023-01-12T03:28:59.704Z,41.05
2023-01-12T03:31:32.852Z,40.60
2023-01-12T03:34:26.757Z,36.60
2023-01-12T03:37:29.689Z,36.35
2023-01-12T03:40:15.725Z,36.90
2023-01-12T03:42:58.792Z,33.38
2023-01-12T03:45:50.701Z,33.13
2023-01-12T03:48:44.805Z,30.15
2023-01-12T03:51:31.710Z,35.95
2023-01-12T03:54:14.841Z,35.35
2023-01-12T03:56:57.704Z,32.15
2023-01-12T03:59:37.810Z,36.95
2023-01-12T04:02:18.736Z,33.63
2023-01-12T04:04:58.891Z,31.33
2023-01-12T04:07:38.728Z,31.75
2023-01-12T04:10:18.718Z,31.98
2023-01-12T04:12:51.840Z,28.63
2023-01-12T04:15:38.712Z,28.67
2023-01-12T04:18:11.820Z,30.80
2023-01-12T04:20:58.755Z,33.75
2023-01-12T04:23:31.828Z,34.10
2023-01-12T04:26:18.726Z,33.83
2023-01-12T04:28:58.716Z,29.20
2023-01-12T04:31:45.785Z,33.40
2023-01-12T04:34:18.873Z,41.63
2023-01-12T04:37:08.726Z,57.88
2023-01-12T04:39:48.733Z,56.40
2023-01-12T04:42:53.723Z,38.40
2023-01-12T04:45:26.859Z,33.10
2023-01-12T04:48:16.751Z,34.20
2023-01-12T04:50:50.561Z,33.00
2023-01-12T04:53:40.781Z,33.28
2023-01-12T04:56:15.096Z,33.60
2023-01-12T04:59:06.746Z,32.13
2023-01-12T05:01:39.895Z,32.40
2023-01-12T05:04:26.770Z,35.28
2023-01-12T05:06:59.831Z,32.88
2023-01-12T05:10:04.720Z,30.98
2023-01-12T05:12:44.741Z,35.85
2023-01-12T05:15:38.728Z,33.05
2023-01-12T05:18:25.747Z,30.63
2023-01-12T05:20:58.837Z,30.20
2023-01-12T05:23:45.849Z,28.17
2023-01-12T05:26:26.747Z,30.35
2023-01-12T05:29:21.750Z,41.85
2023-01-12T05:32:08.741Z,51.33
2023-01-12T05:34:48.732Z,44.15
2023-01-12T05:37:35.774Z,47.22
2023-01-12T05:40:08.863Z,44.30
2023-01-12T05:43:17.760Z,38.17
2023-01-12T05:45:50.946Z,42.75
2023-01-12T05:48:38.740Z,42.45
2023-01-12T05:51:14.311Z,45.30
2023-01-12T05:54:01.776Z,42.65
2023-01-12T05:56:34.849Z,46.28
2023-01-12T05:59:21.755Z,47.88
2023-01-12T06:02:01.780Z,39.70
2023-01-12T06:04:55.804Z,34.65
2023-01-12T06:07:43.755Z,32.75
2023-01-12T06:10:24.731Z,37.97
2023-01-12T06:13:29.770Z,37.65
2023-01-12T06:16:18.906Z,33.38
2023-01-12T06:19:13.227Z,36.28
2023-01-12T06:22:06.752Z,34.53
2023-01-12T06:24:55.768Z,36.65
2023-01-12T06:27:28.851Z,37.53
2023-01-12T06:30:16.776Z,41.58
2023-01-12T06:32:49.860Z,44.33
2023-01-12T06:35:43.793Z,42.85
2023-01-12T06:38:39.768Z,35.67
2023-01-12T06:41:45.757Z,39.10
2023-01-12T06:44:18.853Z,34.30
2023-01-12T06:47:08.793Z,35.08
2023-01-12T06:49:48.769Z,37.58
2023-01-12T06:52:36.773Z,39.13
2023-01-12T06:55:11.310Z,40.63
2023-01-12T06:57:57.772Z,51.90
2023-01-12T07:00:30.932Z,53.78
2023-01-12T07:03:25.765Z,53.95
2023-01-12T07:06:05.804Z,53.45
2023-01-12T07:08:52.821Z,51.63
2023-01-12T07:11:25.876Z,51.30
2023-01-12T07:14:12.846Z,40.30
2023-01-12T07:16:45.864Z,34.50
2023-01-12T07:19:32.785Z,29.92
2023-01-12T07:22:05.880Z,28.42
2023-01-12T07:24:52.777Z,34.08
2023-01-12T07:27:32.815Z,31.33
2023-01-12T07:30:27.804Z,38.97
2023-01-12T07:33:19.797Z,31.35
2023-01-12T07:35:59.787Z,37.55
2023-01-12T07:38:53.771Z,43.78
2023-01-12T07:42:00.004Z,52.38
2023-01-12T07:44:39.844Z,37.60
2023-01-12T07:47:34.809Z,58.15
2023-01-12T07:50:21.800Z,58.10
2023-01-12T07:52:54.890Z,48.08
2023-01-12T07:55:41.797Z,41.13
2023-01-12T07:58:21.810Z,42.47
2023-01-12T08:01:15.817Z,37.38
2023-01-12T08:04:03.809Z,39.05
2023-01-12T08:06:36.915Z,45.47
2023-01-12T08:09:25.797Z,44.03
2023-01-12T08:11:58.945Z,46.40
2023-01-12T08:14:47.808Z,51.15
2023-01-12T08:17:33.834Z,54.15
2023-01-12T08:20:25.820Z,58.95
2023-01-12T08:23:02.904Z,68.90
2023-01-12T08:25:53.800Z,73.70
2023-01-12T08:28:40.820Z,66.32
2023-01-12T08:31:36.802Z,69.18
2023-01-12T08:34:23.812Z,228.65
2023-01-12T08:36:56.892Z,238.50
2023-01-12T08:39:43.801Z,234.00
2023-01-12T08:42:16.959Z,196.88
2023-01-12T08:45:03.808Z,68.60
2023-01-12T08:47:43.835Z,79.45
2023-01-12T08:50:37.828Z,63.55
2023-01-12T08:53:31.817Z,52.35
2023-01-12T08:56:25.810Z,47.67
2023-01-12T08:59:20.823Z,42.08
2023-01-12T09:02:14.904Z,46.63
2023-01-12T09:05:08.847Z,40.60
2023-01-12T09:07:55.815Z,38.85
2023-01-12T09:10:28.919Z,43.08
2023-01-12T09:13:18.814Z,51.35
2023-01-12T09:16:11.700Z,39.55
2023-01-12T09:19:06.835Z,44.95
2023-01-12T09:21:56.828Z,44.25
2023-01-12T09:24:30.113Z,43.85
2023-01-12T09:27:16.808Z,44.08
2023-01-12T09:29:50.081Z,48.45
2023-01-12T09:32:37.238Z,45.10
2023-01-12T09:35:10.910Z,45.95
2023-01-12T09:37:57.836Z,43.58
2023-01-12T09:40:30.927Z,46.92
2023-01-12T09:43:40.835Z,90.18
2023-01-12T09:46:47.849Z,122.20
2023-01-12T09:49:46.830Z,104.63
2023-01-12T09:52:37.846Z,139.82
2023-01-12T09:55:13.020Z,127.65
2023-01-12T09:58:23.848Z,85.72
2023-01-12T10:01:07.863Z,57.05
2023-01-12T10:04:03.826Z,48.08
2023-01-12T10:06:57.851Z,38.72
2023-01-12T10:09:44.818Z,35.67
2023-01-12T10:12:42.027Z,35.08
2023-01-12T10:15:28.830Z,33.38
2023-01-12T10:18:05.989Z,35.40
2023-01-12T10:20:52.854Z,35.10
2023-01-12T10:23:25.990Z,32.50
2023-01-12T10:26:30.875Z,30.35
2023-01-12T10:29:10.835Z,30.50
2023-01-12T10:31:57.973Z,31.23
2023-01-12T10:34:30.942Z,32.80
2023-01-12T10:37:24.892Z,30.85
2023-01-12T10:40:11.853Z,34.33
2023-01-12T10:43:06.702Z,30.08
2023-01-12T10:46:10.929Z,31.77
2023-01-12T10:48:59.832Z,31.58
2023-01-12T10:51:54.888Z,34.63
2023-01-12T10:54:38.801Z,34.50
2023-01-12T10:57:28.859Z,31.40
2023-01-12T11:00:10.847Z,35.50
2023-01-12T11:02:56.892Z,30.80
2023-01-12T11:05:51.852Z,33.70
2023-01-12T11:08:38.862Z,36.22
2023-01-12T11:11:42.890Z,35.50
2023-01-12T11:14:45.841Z,35.90
2023-01-12T11:18:14.865Z,38.30
2023-01-12T11:20:53.994Z,41.85
2023-01-12T11:23:58.878Z,37.20
2023-01-12T11:27:06.890Z,38.85
2023-01-12T11:30:19.893Z,37.22
2023-01-12T11:33:16.941Z,33.65
2023-01-12T11:36:07.879Z,30.65
2023-01-12T11:38:57.858Z,23.38
2023-01-12T11:42:20.909Z,22.48
2023-01-12T11:45:12.887Z,27.95
2023-01-12T11:48:07.893Z,27.02
2023-01-12T11:51:03.915Z,27.50
2023-01-12T11:53:51.872Z,25.75
2023-01-12T11:56:33.998Z,27.25
2023-01-12T11:59:25.873Z,25.75
2023-01-12T12:02:08.055Z,26.55
2023-01-12T12:05:31.878Z,28.27
2023-01-12T12:08:41.996Z,23.67
2023-01-12T12:11:41.942Z,21.70
2023-01-12T12:14:58.002Z,22.20
2023-01-12T12:18:22.904Z,18.90
2023-01-12T12:21:11.900Z,21.42
2023-01-12T12:24:23.890Z,19.15
2023-01-12T12:27:28.907Z,23.00
2023-01-12T12:30:27.914Z,24.42
2023-01-12T12:33:14.921Z,23.52
2023-01-12T12:36:13.030Z,24.00
2023-01-12T12:39:21.913Z,21.65
2023-01-12T12:42:49.895Z,21.52
2023-01-12T12:45:46.884Z,21.60
2023-01-12T12:48:51.893Z,20.98
2023-01-12T12:51:27.033Z,22.20
2023-01-12T12:54:18.936Z,22.95
2023-01-12T12:56:53.030Z,18.25
2023-01-12T12:59:41.916Z,17.45
2023-01-12T13:02:44.945Z,19.48
2023-01-12T13:05:52.896Z,20.95
2023-01-12T13:08:40.915Z,16.60
2023-01-12T13:12:00.898Z,17.08
2023-01-12T13:14:56.914Z,16.13
2023-01-12T13:17:55.932Z,14.98
2023-01-12T13:21:05.910Z,18.02
2023-01-12T13:23:55.929Z,19.17
2023-01-12T13:26:53.909Z,14.80
2023-01-12T13:29:51.913Z,20.83
2023-01-12T13:32:43.918Z,19.70
2023-01-12T13:35:31.032Z,28.85
2023-01-12T13:38:38.983Z,26.10
2023-01-12T13:41:45.918Z,23.50
2023-01-12T13:44:46.907Z,29.38
2023-01-12T13:47:39.911Z,24.70
2023-01-12T13:50:24.074Z,22.33
2023-01-12T13:53:11.924Z,31.50
2023-01-12T13:55:51.920Z,34.75
2023-01-12T13:58:56.941Z,24.92
2023-01-12T14:01:46.077Z,21.60
2023-01-12T14:04:28.913Z,20.15
2023-01-12T14:07:29.933Z,21.60
2023-01-12T14:10:33.919Z,18.65
2023-01-12T14:13:44.101Z,23.67
2023-01-12T14:17:04.802Z,26.45
2023-01-12T14:19:39.089Z,29.58
2023-01-12T14:22:26.936Z,30.27
2023-01-12T14:25:34.939Z,34.05
2023-01-12T14:28:36.937Z,27.80
2023-01-12T14:31:29.953Z,27.20
2023-01-12T14:34:07.066Z,31.55
2023-01-12T14:37:00.909Z,25.02
2023-01-12T14:39:59.931Z,23.05
2023-01-12T14:43:04.949Z,25.30
2023-01-12T14:45:56.915Z,23.10
2023-01-12T14:48:48.939Z,27.67
2023-01-12T14:52:08.007Z,36.90
2023-01-12T14:55:01.946Z,41.75
2023-01-12T14:57:51.077Z,36.38
2023-01-12T15:00:30.020Z,37.15
2023-01-12T15:03:35.301Z,35.90
2023-01-12T15:06:13.084Z,33.15
2023-01-12T15:09:06.943Z,31.73
2023-01-12T15:11:45.070Z,35.55
2023-01-12T15:14:35.952Z,34.67
2023-01-12T15:17:34.004Z,47.75
2023-01-12T15:20:45.950Z,46.40
2023-01-12T15:23:54.966Z,44.80
2023-01-12T15:26:35.962Z,42.35
2023-01-12T15:29:31.350Z,39.42
2023-01-12T15:32:48.075Z,40.97
2023-01-12T15:35:42.007Z,41.03
2023-01-12T15:38:36.043Z,38.80
2023-01-12T15:41:45.940Z,39.97
2023-01-12T15:44:24.145Z,42.90
2023-01-12T15:47:12.965Z,45.90
2023-01-12T15:49:54.003Z,44.85
2023-01-12T15:52:48.010Z,45.75
2023-01-12T15:55:38.009Z,50.90
2023-01-12T15:58:18.014Z,59.45
2023-01-12T16:01:13.044Z,72.00
2023-01-12T16:04:35.683Z,55.50
2023-01-12T16:06:53.079Z,39.03
2023-01-12T16:09:40.008Z,35.75
2023-01-12T16:12:14.505Z,43.85
2023-01-12T16:15:03.043Z,40.10
2023-01-12T16:17:37.088Z,37.35
2023-01-12T16:20:26.977Z,40.80
2023-01-12T16:23:00.144Z,39.67
2023-01-12T16:25:46.985Z,43.92
2023-01-12T16:28:20.163Z,44.10
2023-01-12T16:31:06.976Z,39.33
2023-01-12T16:33:47.187Z,65.15
2023-01-12T16:36:40.980Z,49.40
2023-01-12T16:39:35.030Z,43.22
2023-01-12T16:42:29.039Z,37.92
2023-01-12T16:45:16.983Z,30.15
2023-01-12T16:47:50.196Z,38.85
2023-01-12T16:50:37.045Z,44.38
2023-01-12T16:53:10.102Z,42.22
2023-01-12T16:55:57.040Z,30.98
2023-01-12T16:58:37.019Z,39.03
2023-01-12T17:01:33.094Z,33.75
2023-01-12T17:04:27.059Z,31.15
2023-01-12T17:07:14.015Z,32.70
2023-01-12T17:09:47.156Z,33.72
2023-01-12T17:12:34.009Z,31.45
2023-01-12T17:15:14.019Z,33.70
2023-01-12T17:18:08.010Z,27.95
2023-01-12T17:20:55.031Z,24.33
2023-01-12T17:23:29.214Z,25.60
2023-01-12T17:26:24.010Z,31.30
2023-01-12T17:29:04.017Z,39.53
2023-01-12T17:31:52.332Z,35.97
2023-01-12T17:34:29.712Z,31.63
2023-01-12T17:37:17.041Z,33.67
2023-01-12T17:39:50.160Z,40.47
2023-01-12T17:42:55.034Z,40.28
2023-01-12T17:45:28.103Z,46.63
2023-01-12T17:48:25.069Z,43.63
2023-01-12T17:50:58.150Z,39.67
2023-01-12T17:53:45.093Z,35.60
2023-01-12T17:56:18.152Z,33.85
2023-01-12T17:59:06.021Z,32.33
2023-01-12T18:01:42.853Z,33.28
2023-01-12T18:04:24.014Z,29.17
2023-01-12T18:07:04.183Z,34.08
2023-01-12T18:09:44.033Z,36.47
2023-01-12T18:12:27.033Z,36.10
2023-01-12T18:15:01.139Z,47.28
2023-01-12T18:17:48.015Z,46.35
2023-01-12T18:20:21.141Z,55.95
2023-01-12T18:23:08.033Z,56.35
2023-01-12T18:25:50.039Z,43.80
2023-01-12T18:28:44.021Z,41.78
2023-01-12T18:31:37.832Z,44.45
2023-01-12T18:34:14.320Z,45.10
2023-01-12T18:37:08.015Z,40.65
2023-01-12T18:40:03.050Z,34.47
2023-01-12T18:43:01.048Z,36.92
2023-01-12T18:45:41.096Z,30.73
2023-01-12T18:48:35.048Z,47.83
2023-01-12T18:51:41.097Z,56.97
2023-01-12T18:54:21.039Z,47.22
2023-01-12T18:57:08.025Z,43.92
2023-01-12T18:59:42.122Z,44.65
2023-01-12T19:02:30.213Z,48.53
2023-01-12T19:05:28.032Z,47.45
2023-01-12T19:08:40.068Z,46.38
2023-01-12T19:11:36.048Z,42.35
2023-01-12T19:14:44.114Z,45.65
2023-01-12T19:17:33.022Z,58.83
2023-01-12T19:20:22.044Z,40.75
2023-01-12T19:23:20.028Z,36.53
2023-01-12T19:26:29.096Z,32.63
2023-01-12T19:29:02.160Z,33.58
2023-01-12T19:31:49.093Z,27.92
2023-01-12T19:34:24.754Z,30.23
2023-01-12T19:37:12.112Z,27.40
2023-01-12T19:40:00.262Z,28.98
2023-01-12T19:43:00.036Z,32.72
2023-01-12T19:45:44.055Z,38.17
2023-01-12T19:48:26.048Z,38.92
2023-01-12T19:51:16.050Z,46.47
2023-01-12T19:53:49.205Z,37.00
2023-01-12T19:56:36.113Z,36.45
2023-01-12T19:59:17.946Z,38.42
2023-01-12T20:02:05.120Z,44.85
2023-01-12T20:04:38.217Z,42.78
2023-01-12T20:07:26.037Z,42.17
2023-01-12T20:10:00.054Z,33.58
2023-01-12T20:12:47.118Z,40.53
2023-01-12T20:15:21.192Z,41.83
2023-01-12T20:18:10.119Z,41.42
2023-01-12T20:20:43.252Z,37.88
2023-01-12T20:23:31.198Z,52.63
2023-01-12T20:26:04.218Z,38.03
2023-01-12T20:28:51.106Z,37.33
2023-01-12T20:31:31.146Z,39.67
2023-01-12T20:34:26.119Z,53.00
2023-01-12T20:37:20.124Z,54.95
2023-01-12T20:40:14.117Z,52.63
2023-01-12T20:43:08.437Z,60.95
2023-01-12T20:45:56.116Z,60.75
2023-01-12T20:48:29.395Z,46.50
2023-01-12T20:51:18.133Z,53.95
2023-01-12T20:54:00.009Z,61.45
2023-01-12T20:56:47.102Z,50.05
2023-01-12T20:59:27.056Z,48.30
2023-01-12T21:02:22.137Z,50.80
2023-01-12T21:05:09.111Z,58.08
2023-01-12T21:07:42.253Z,49.75
2023-01-12T21:10:31.837Z,27.75
2023-01-12T21:13:05.399Z,33.03
2023-01-12T21:15:52.125Z,31.83
2023-01-12T21:18:25.197Z,31.83
2023-01-12T21:21:13.146Z,41.25
2023-01-12T21:23:53.147Z,87.53
2023-01-12T21:26:47.134Z,54.72
2023-01-12T21:29:34.144Z,26.95
2023-01-12T21:32:14.114Z,25.38
2023-01-12T21:35:08.121Z,26.05
2023-01-12T21:37:55.159Z,26.58
2023-01-12T21:40:35.183Z,30.85
2023-01-12T21:43:29.137Z,33.97
2023-01-12T21:46:24.116Z,47.80
2023-01-12T21:49:11.125Z,78.85
2023-01-12T21:51:44.203Z,83.95
2023-01-12T21:54:32.133Z,103.63
2023-01-12T21:57:05.236Z,116.30
2023-01-12T21:59:55.195Z,107.80
2023-01-12T22:02:28.213Z,97.00
2023-01-12T22:05:16.126Z,58.75
2023-01-12T22:07:49.262Z,57.93
2023-01-12T22:10:39.153Z,45.42
2023-01-12T22:13:12.226Z,51.72
2023-01-12T22:16:00.120Z,44.85
2023-01-12T22:18:34.681Z,42.92
2023-01-12T22:21:23.212Z,52.08
2023-01-12T22:24:04.119Z,51.92
2023-01-12T22:26:51.162Z,48.22
2023-01-12T22:29:32.126Z,51.33
2023-01-12T22:32:26.168Z,56.22
2023-01-12T22:35:14.173Z,55.08
2023-01-12T22:37:48.245Z,54.58
2023-01-12T22:40:36.166Z,55.83
2023-01-12T22:43:27.478Z,48.45
2023-01-12T22:46:30.177Z,45.95
2023-01-12T22:49:04.337Z,40.65
2023-01-12T22:51:52.188Z,40.13
2023-01-12T22:54:32.176Z,43.53
2023-01-12T22:57:20.177Z,42.13
2023-01-12T22:59:53.316Z,39.88
2023-01-12T23:02:58.297Z,37.22
2023-01-12T23:05:32.351Z,34.97
2023-01-12T23:08:20.203Z,36.58
2023-01-12T23:10:53.394Z,33.25
2023-01-12T23:13:42.211Z,37.72
2023-01-12T23:16:18.293Z,39.63
2023-01-12T23:19:06.175Z,39.03
2023-01-12T23:21:39.884Z,39.13
2023-01-12T23:24:28.174Z,34.90
2023-01-12T23:27:01.282Z,34.75
2023-01-12T23:29:48.183Z,33.25
2023-01-12T23:32:21.293Z,38.53
2023-01-12T23:35:08.223Z,38.35
2023-01-12T23:37:48.185Z,37.10
2023-01-12T23:40:42.217Z,36.80
2023-01-12T23:43:29.196Z,39.03
2023-01-12T23:46:02.359Z,37.33
2023-01-12T23:48:49.182Z,36.53
2023-01-12T23:51:29.185Z,36.47
2023-01-12T23:54:23.204Z,33.15
2023-01-12T23:57:06.248Z,33.33
2023-01-12T23:59:53.180Z,32.53
